Terminal Aerodrome Forecast
Issued by NWS

Home | Current Version | Previous Version | Text Only | Print | Product List | Glossary On
Versions: 1 2 3 4 5 6 7 8 9 10 11 12 13 14 15 16 17 18
280
FTUS43 KLSX 291739
TAFSUS
TAF
KSUS 291739Z 2918/3018 29007KT P6SM SCT050
     FM300100 VRB03KT P6SM SCT250
     FM301500 VRB04KT P6SM FEW040 SCT250=

USA.gov is the U.S. government's official web portal to all federal, state and local government web resources and services.